sensor_id;sensor_type;location;lat;lon;timestamp;P1;durP1;ratioP1;P2;durP2;ratioP2
10191;SDS011;17580;50.850;4.504;2023-11-21T00:02:21;15.87;;;12.23;;
10191;SDS011;17580;50.850;4.504;2023-11-21T00:04:48;19.93;;;13.47;;
10191;SDS011;17580;50.850;4.504;2023-11-21T00:07:15;17.57;;;13.47;;
10191;SDS011;17580;50.850;4.504;2023-11-21T00:09:44;18.73;;;13.57;;
10191;SDS011;17580;50.850;4.504;2023-11-21T00:12:11;22.20;;;15.27;;
10191;SDS011;17580;50.850;4.504;2023-11-21T00:14:39;24.63;;;15.57;;
10191;SDS011;17580;50.850;4.504;2023-11-21T00:17:06;24.10;;;16.13;;
10191;SDS011;17580;50.850;4.504;2023-11-21T00:19:33;20.30;;;14.63;;
10191;SDS011;17580;50.850;4.504;2023-11-21T00:22:00;24.00;;;14.37;;
10191;SDS011;17580;50.850;4.504;2023-11-21T00:24:28;22.10;;;15.43;;
10191;SDS011;17580;50.850;4.504;2023-11-21T00:26:56;21.67;;;14.73;;
10191;SDS011;17580;50.850;4.504;2023-11-21T00:29:23;22.53;;;15.80;;
10191;SDS011;17580;50.850;4.504;2023-11-21T00:31:51;27.93;;;17.33;;
10191;SDS011;17580;50.850;4.504;2023-11-21T00:34:18;24.83;;;15.87;;
10191;SDS011;17580;50.850;4.504;2023-11-21T00:36:46;21.10;;;13.67;;
10191;SDS011;17580;50.850;4.504;2023-11-21T00:39:13;21.20;;;15.20;;
10191;SDS011;17580;50.850;4.504;2023-11-21T00:41:40;22.90;;;15.73;;
10191;SDS011;17580;50.850;4.504;2023-11-21T00:44:11;20.57;;;14.00;;
10191;SDS011;17580;50.850;4.504;2023-11-21T00:46:38;18.13;;;13.70;;
10191;SDS011;17580;50.850;4.504;2023-11-21T00:49:05;22.87;;;15.23;;
10191;SDS011;17580;50.850;4.504;2023-11-21T00:51:32;21.97;;;16.07;;
10191;SDS011;17580;50.850;4.504;2023-11-21T00:54:01;23.83;;;15.73;;
10191;SDS011;17580;50.850;4.504;2023-11-21T00:56:28;26.40;;;17.97;;
10191;SDS011;17580;50.850;4.504;2023-11-21T00:58:55;24.60;;;15.03;;
10191;SDS011;17580;50.850;4.504;2023-11-21T01:01:24;23.07;;;15.73;;
10191;SDS011;17580;50.850;4.504;2023-11-21T01:03:51;25.17;;;15.67;;
10191;SDS011;17580;50.850;4.504;2023-11-21T01:06:19;23.00;;;15.97;;
10191;SDS011;17580;50.850;4.504;2023-11-21T01:08:46;28.47;;;16.57;;
10191;SDS011;17580;50.850;4.504;2023-11-21T01:11:13;21.03;;;14.50;;
10191;SDS011;17580;50.850;4.504;2023-11-21T01:13:41;30.47;;;17.83;;
10191;SDS011;17580;50.850;4.504;2023-11-21T01:16:10;24.17;;;17.13;;
10191;SDS011;17580;50.850;4.504;2023-11-21T01:18:38;31.53;;;19.77;;
10191;SDS011;17580;50.850;4.504;2023-11-21T01:21:05;21.70;;;16.33;;
10191;SDS011;17580;50.850;4.504;2023-11-21T01:23:34;32.03;;;18.87;;
10191;SDS011;17580;50.850;4.504;2023-11-21T01:26:01;22.57;;;15.40;;
10191;SDS011;17580;50.850;4.504;2023-11-21T01:28:28;26.10;;;17.03;;
10191;SDS011;17580;50.850;4.504;2023-11-21T01:30:56;23.80;;;16.50;;
10191;SDS011;17580;50.850;4.504;2023-11-21T01:33:23;23.87;;;16.70;;
10191;SDS011;17580;50.850;4.504;2023-11-21T01:35:52;24.73;;;16.80;;
10191;SDS011;17580;50.850;4.504;2023-11-21T01:38:20;23.80;;;15.23;;
10191;SDS011;17580;50.850;4.504;2023-11-21T01:40:48;28.50;;;17.60;;
10191;SDS011;17580;50.850;4.504;2023-11-21T01:43:15;27.93;;;17.03;;
10191;SDS011;17580;50.850;4.504;2023-11-21T01:45:42;25.70;;;16.47;;
10191;SDS011;17580;50.850;4.504;2023-11-21T01:48:10;23.10;;;16.30;;
10191;SDS011;17580;50.850;4.504;2023-11-21T01:50:38;22.00;;;14.93;;
10191;SDS011;17580;50.850;4.504;2023-11-21T01:53:06;23.93;;;16.07;;
10191;SDS011;17580;50.850;4.504;2023-11-21T01:55:34;22.57;;;14.97;;
10191;SDS011;17580;50.850;4.504;2023-11-21T01:58:01;20.10;;;14.67;;
10191;SDS011;17580;50.850;4.504;2023-11-21T02:00:28;20.83;;;14.33;;
10191;SDS011;17580;50.850;4.504;2023-11-21T02:02:56;24.37;;;14.40;;
10191;SDS011;17580;50.850;4.504;2023-11-21T02:05:24;25.97;;;15.07;;
10191;SDS011;17580;50.850;4.504;2023-11-21T02:07:52;22.77;;;14.87;;
10191;SDS011;17580;50.850;4.504;2023-11-21T02:10:20;18.87;;;13.80;;
10191;SDS011;17580;50.850;4.504;2023-11-21T02:12:48;23.30;;;15.60;;
10191;SDS011;17580;50.850;4.504;2023-11-21T02:15:16;23.13;;;14.70;;
10191;SDS011;17580;50.850;4.504;2023-11-21T02:17:45;21.10;;;14.50;;
10191;SDS011;17580;50.850;4.504;2023-11-21T02:20:16;20.20;;;14.40;;
10191;SDS011;17580;50.850;4.504;2023-11-21T02:22:43;22.10;;;16.97;;
10191;SDS011;17580;50.850;4.504;2023-11-21T02:25:13;21.90;;;14.93;;
10191;SDS011;17580;50.850;4.504;2023-11-21T02:27:40;20.30;;;15.37;;
10191;SDS011;17580;50.850;4.504;2023-11-21T02:30:08;22.73;;;16.33;;
10191;SDS011;17580;50.850;4.504;2023-11-21T02:32:38;25.60;;;16.93;;
10191;SDS011;17580;50.850;4.504;2023-11-21T02:35:08;20.40;;;14.93;;
10191;SDS011;17580;50.850;4.504;2023-11-21T02:37:37;23.47;;;17.00;;
10191;SDS011;17580;50.850;4.504;2023-11-21T02:40:06;20.50;;;14.87;;
10191;SDS011;17580;50.850;4.504;2023-11-21T02:42:36;23.60;;;14.77;;
10191;SDS011;17580;50.850;4.504;2023-11-21T02:45:03;17.07;;;12.00;;
10191;SDS011;17580;50.850;4.504;2023-11-21T02:47:31;15.63;;;12.07;;
10191;SDS011;17580;50.850;4.504;2023-11-21T02:49:58;16.30;;;11.80;;
10191;SDS011;17580;50.850;4.504;2023-11-21T02:52:25;19.47;;;12.33;;
10191;SDS011;17580;50.850;4.504;2023-11-21T02:54:53;17.43;;;12.80;;
10191;SDS011;17580;50.850;4.504;2023-11-21T02:57:20;14.67;;;11.83;;
10191;SDS011;17580;50.850;4.504;2023-11-21T02:59:49;19.47;;;11.30;;
10191;SDS011;17580;50.850;4.504;2023-11-21T03:02:16;15.97;;;11.97;;
10191;SDS011;17580;50.850;4.504;2023-11-21T03:04:43;14.60;;;11.70;;
10191;SDS011;17580;50.850;4.504;2023-11-21T03:07:10;16.80;;;11.67;;
10191;SDS011;17580;50.850;4.504;2023-11-21T03:09:38;13.97;;;10.57;;
10191;SDS011;17580;50.850;4.504;2023-11-21T03:12:05;14.20;;;11.87;;
10191;SDS011;17580;50.850;4.504;2023-11-21T03:14:34;15.73;;;11.83;;
10191;SDS011;17580;50.850;4.504;2023-11-21T03:17:02;14.53;;;11.63;;
10191;SDS011;17580;50.850;4.504;2023-11-21T03:19:30;16.70;;;11.30;;
10191;SDS011;17580;50.850;4.504;2023-11-21T03:21:57;16.00;;;11.43;;
10191;SDS011;17580;50.850;4.504;2023-11-21T03:24:25;15.63;;;11.10;;
10191;SDS011;17580;50.850;4.504;2023-11-21T03:26:52;16.80;;;11.73;;
10191;SDS011;17580;50.850;4.504;2023-11-21T03:29:19;16.93;;;11.60;;
10191;SDS011;17580;50.850;4.504;2023-11-21T03:31:46;13.53;;;10.47;;
10191;SDS011;17580;50.850;4.504;2023-11-21T03:34:23;21.23;;;11.07;;
10191;SDS011;17580;50.850;4.504;2023-11-21T03:36:51;16.70;;;11.70;;
10191;SDS011;17580;50.850;4.504;2023-11-21T03:39:19;14.47;;;10.60;;
10191;SDS011;17580;50.850;4.504;2023-11-21T03:41:47;15.43;;;11.43;;
10191;SDS011;17580;50.850;4.504;2023-11-21T03:44:14;14.60;;;11.80;;
10191;SDS011;17580;50.850;4.504;2023-11-21T03:46:42;19.80;;;11.73;;
10191;SDS011;17580;50.850;4.504;2023-11-21T03:49:10;13.80;;;11.27;;
10191;SDS011;17580;50.850;4.504;2023-11-21T03:51:38;14.57;;;10.57;;
10191;SDS011;17580;50.850;4.504;2023-11-21T03:54:06;11.30;;;9.97;;
10191;SDS011;17580;50.850;4.504;2023-11-21T03:56:33;14.43;;;10.10;;
10191;SDS011;17580;50.850;4.504;2023-11-21T03:58:59;16.33;;;11.77;;
10191;SDS011;17580;50.850;4.504;2023-11-21T04:01:26;13.67;;;11.03;;
10191;SDS011;17580;50.850;4.504;2023-11-21T04:03:53;15.40;;;11.40;;
10191;SDS011;17580;50.850;4.504;2023-11-21T04:06:22;18.53;;;10.70;;
10191;SDS011;17580;50.850;4.504;2023-11-21T04:08:51;16.90;;;10.43;;
10191;SDS011;17580;50.850;4.504;2023-11-21T04:11:18;15.10;;;10.33;;
10191;SDS011;17580;50.850;4.504;2023-11-21T04:13:45;14.27;;;11.33;;
10191;SDS011;17580;50.850;4.504;2023-11-21T04:16:13;17.10;;;11.43;;
10191;SDS011;17580;50.850;4.504;2023-11-21T04:18:40;17.73;;;10.60;;
10191;SDS011;17580;50.850;4.504;2023-11-21T04:21:07;13.03;;;10.83;;
10191;SDS011;17580;50.850;4.504;2023-11-21T04:23:35;17.03;;;10.83;;
10191;SDS011;17580;50.850;4.504;2023-11-21T04:26:03;15.70;;;10.63;;
10191;SDS011;17580;50.850;4.504;2023-11-21T04:28:31;17.50;;;11.50;;
10191;SDS011;17580;50.850;4.504;2023-11-21T04:30:59;15.40;;;11.30;;
10191;SDS011;17580;50.850;4.504;2023-11-21T04:33:27;14.27;;;11.07;;
10191;SDS011;17580;50.850;4.504;2023-11-21T04:35:54;12.70;;;9.97;;
10191;SDS011;17580;50.850;4.504;2023-11-21T04:38:21;12.97;;;10.33;;
10191;SDS011;17580;50.850;4.504;2023-11-21T04:40:48;14.43;;;10.97;;
10191;SDS011;17580;50.850;4.504;2023-11-21T04:43:17;14.97;;;11.90;;
10191;SDS011;17580;50.850;4.504;2023-11-21T04:45:44;18.90;;;11.43;;
10191;SDS011;17580;50.850;4.504;2023-11-21T04:48:12;17.13;;;11.07;;
10191;SDS011;17580;50.850;4.504;2023-11-21T04:50:39;14.67;;;10.27;;
10191;SDS011;17580;50.850;4.504;2023-11-21T04:53:06;14.67;;;10.43;;
10191;SDS011;17580;50.850;4.504;2023-11-21T04:55:33;20.73;;;12.87;;
10191;SDS011;17580;50.850;4.504;2023-11-21T04:58:01;13.43;;;11.67;;
10191;SDS011;17580;50.850;4.504;2023-11-21T05:00:30;17.20;;;13.17;;
10191;SDS011;17580;50.850;4.504;2023-11-21T05:02:58;18.87;;;12.60;;
10191;SDS011;17580;50.850;4.504;2023-11-21T05:05:26;14.50;;;11.53;;
10191;SDS011;17580;50.850;4.504;2023-11-21T05:07:54;15.33;;;11.27;;
10191;SDS011;17580;50.850;4.504;2023-11-21T05:10:22;15.23;;;12.80;;
10191;SDS011;17580;50.850;4.504;2023-11-21T05:12:49;19.20;;;13.30;;
10191;SDS011;17580;50.850;4.504;2023-11-21T05:15:16;15.07;;;12.13;;
10191;SDS011;17580;50.850;4.504;2023-11-21T05:17:45;16.67;;;11.10;;
10191;SDS011;17580;50.850;4.504;2023-11-21T05:20:15;12.67;;;11.37;;
10191;SDS011;17580;50.850;4.504;2023-11-21T05:22:46;14.77;;;11.73;;
10191;SDS011;17580;50.850;4.504;2023-11-21T05:25:14;15.23;;;11.47;;
10191;SDS011;17580;50.850;4.504;2023-11-21T05:27:43;16.03;;;11.50;;
10191;SDS011;17580;50.850;4.504;2023-11-21T05:30:10;17.87;;;12.47;;
10191;SDS011;17580;50.850;4.504;2023-11-21T05:32:38;14.57;;;11.87;;
10191;SDS011;17580;50.850;4.504;2023-11-21T05:35:07;16.23;;;12.23;;
10191;SDS011;17580;50.850;4.504;2023-11-21T05:37:37;15.90;;;12.70;;
10191;SDS011;17580;50.850;4.504;2023-11-21T05:40:05;16.30;;;13.20;;
10191;SDS011;17580;50.850;4.504;2023-11-21T05:42:33;15.27;;;12.30;;
10191;SDS011;17580;50.850;4.504;2023-11-21T05:45:00;17.70;;;13.20;;
10191;SDS011;17580;50.850;4.504;2023-11-21T05:47:35;18.90;;;13.83;;
10191;SDS011;17580;50.850;4.504;2023-11-21T05:50:03;19.90;;;13.40;;
10191;SDS011;17580;50.850;4.504;2023-11-21T05:52:32;16.10;;;13.03;;
10191;SDS011;17580;50.850;4.504;2023-11-21T05:55:00;17.73;;;13.27;;
10191;SDS011;17580;50.850;4.504;2023-11-21T05:57:26;16.57;;;13.37;;
10191;SDS011;17580;50.850;4.504;2023-11-21T05:59:53;17.50;;;13.07;;
10191;SDS011;17580;50.850;4.504;2023-11-21T06:02:20;12.90;;;10.77;;
10191;SDS011;17580;50.850;4.504;2023-11-21T06:04:47;18.10;;;12.10;;
10191;SDS011;17580;50.850;4.504;2023-11-21T06:07:15;19.65;;;15.73;;
10191;SDS011;17580;50.850;4.504;2023-11-21T06:09:43;16.57;;;12.93;;
10191;SDS011;17580;50.850;4.504;2023-11-21T06:12:10;13.73;;;12.30;;
10191;SDS011;17580;50.850;4.504;2023-11-21T06:14:38;14.33;;;11.47;;
10191;SDS011;17580;50.850;4.504;2023-11-21T06:17:04;13.43;;;11.43;;
10191;SDS011;17580;50.850;4.504;2023-11-21T06:19:31;13.47;;;11.37;;
10191;SDS011;17580;50.850;4.504;2023-11-21T06:21:58;14.23;;;10.73;;
10191;SDS011;17580;50.850;4.504;2023-11-21T06:24:26;15.00;;;12.10;;
10191;SDS011;17580;50.850;4.504;2023-11-21T06:26:55;16.90;;;13.30;;
10191;SDS011;17580;50.850;4.504;2023-11-21T06:29:22;15.13;;;11.97;;
10191;SDS011;17580;50.850;4.504;2023-11-21T06:31:49;14.93;;;12.57;;
10191;SDS011;17580;50.850;4.504;2023-11-21T06:34:16;13.33;;;11.70;;
10191;SDS011;17580;50.850;4.504;2023-11-21T06:36:44;13.73;;;11.97;;
10191;SDS011;17580;50.850;4.504;2023-11-21T06:39:11;17.47;;;13.10;;
10191;SDS011;17580;50.850;4.504;2023-11-21T06:41:40;16.77;;;12.80;;
10191;SDS011;17580;50.850;4.504;2023-11-21T06:44:09;14.07;;;12.47;;
10191;SDS011;17580;50.850;4.504;2023-11-21T06:46:36;18.80;;;13.50;;
10191;SDS011;17580;50.850;4.504;2023-11-21T06:49:07;16.03;;;12.00;;
10191;SDS011;17580;50.850;4.504;2023-11-21T06:51:34;18.17;;;12.93;;
10191;SDS011;17580;50.850;4.504;2023-11-21T06:54:01;15.53;;;12.60;;
10191;SDS011;17580;50.850;4.504;2023-11-21T06:56:28;14.63;;;12.37;;
10191;SDS011;17580;50.850;4.504;2023-11-21T06:58:56;15.97;;;12.57;;
10191;SDS011;17580;50.850;4.504;2023-11-21T07:01:24;13.33;;;11.83;;
10191;SDS011;17580;50.850;4.504;2023-11-21T07:03:51;17.07;;;12.20;;
10191;SDS011;17580;50.850;4.504;2023-11-21T07:06:19;13.70;;;11.87;;
10191;SDS011;17580;50.850;4.504;2023-11-21T07:08:46;16.10;;;13.23;;
10191;SDS011;17580;50.850;4.504;2023-11-21T07:11:13;16.57;;;12.63;;
10191;SDS011;17580;50.850;4.504;2023-11-21T07:13:41;15.10;;;12.27;;
10191;SDS011;17580;50.850;4.504;2023-11-21T07:16:08;12.20;;;10.90;;
10191;SDS011;17580;50.850;4.504;2023-11-21T07:18:37;15.80;;;11.93;;
10191;SDS011;17580;50.850;4.504;2023-11-21T07:21:05;19.90;;;12.43;;
10191;SDS011;17580;50.850;4.504;2023-11-21T07:23:33;14.70;;;12.33;;
10191;SDS011;17580;50.850;4.504;2023-11-21T07:26:01;16.70;;;12.13;;
10191;SDS011;17580;50.850;4.504;2023-11-21T07:28:34;15.73;;;12.17;;
10191;SDS011;17580;50.850;4.504;2023-11-21T07:31:01;15.73;;;11.67;;
10191;SDS011;17580;50.850;4.504;2023-11-21T07:33:28;18.30;;;12.73;;
10191;SDS011;17580;50.850;4.504;2023-11-21T07:35:57;18.67;;;13.73;;
10191;SDS011;17580;50.850;4.504;2023-11-21T07:38:24;17.07;;;12.80;;
10191;SDS011;17580;50.850;4.504;2023-11-21T07:40:53;15.77;;;12.70;;
10191;SDS011;17580;50.850;4.504;2023-11-21T07:43:20;15.17;;;12.57;;
10191;SDS011;17580;50.850;4.504;2023-11-21T07:45:47;15.60;;;13.37;;
10191;SDS011;17580;50.850;4.504;2023-11-21T07:48:15;14.73;;;12.57;;
10191;SDS011;17580;50.850;4.504;2023-11-21T07:50:42;16.37;;;13.47;;
10191;SDS011;17580;50.850;4.504;2023-11-21T07:53:10;23.07;;;13.00;;
10191;SDS011;17580;50.850;4.504;2023-11-21T07:55:38;18.37;;;12.87;;
10191;SDS011;17580;50.850;4.504;2023-11-21T07:58:05;18.93;;;13.43;;
10191;SDS011;17580;50.850;4.504;2023-11-21T08:00:32;22.07;;;13.63;;
10191;SDS011;17580;50.850;4.504;2023-11-21T08:02:59;15.17;;;12.77;;
10191;SDS011;17580;50.850;4.504;2023-11-21T08:05:27;15.10;;;12.90;;
10191;SDS011;17580;50.850;4.504;2023-11-21T08:07:56;18.73;;;14.17;;
10191;SDS011;17580;50.850;4.504;2023-11-21T08:10:25;15.63;;;12.60;;
10191;SDS011;17580;50.850;4.504;2023-11-21T08:12:52;16.20;;;12.90;;
10191;SDS011;17580;50.850;4.504;2023-11-21T08:15:19;16.67;;;12.83;;
10191;SDS011;17580;50.850;4.504;2023-11-21T08:17:46;18.70;;;13.33;;
10191;SDS011;17580;50.850;4.504;2023-11-21T08:20:14;14.03;;;12.60;;
10191;SDS011;17580;50.850;4.504;2023-11-21T08:22:43;18.77;;;12.00;;
10191;SDS011;17580;50.850;4.504;2023-11-21T08:25:10;13.83;;;12.43;;
10191;SDS011;17580;50.850;4.504;2023-11-21T08:27:39;16.00;;;12.73;;
10191;SDS011;17580;50.850;4.504;2023-11-21T08:30:06;15.10;;;11.37;;
10191;SDS011;17580;50.850;4.504;2023-11-21T08:32:33;16.30;;;11.43;;
10191;SDS011;17580;50.850;4.504;2023-11-21T08:35:01;21.70;;;14.37;;
10191;SDS011;17580;50.850;4.504;2023-11-21T08:37:28;15.90;;;12.80;;
10191;SDS011;17580;50.850;4.504;2023-11-21T08:39:58;20.17;;;13.10;;
10191;SDS011;17580;50.850;4.504;2023-11-21T08:42:25;18.40;;;13.60;;
10191;SDS011;17580;50.850;4.504;2023-11-21T08:44:56;19.30;;;14.20;;
10191;SDS011;17580;50.850;4.504;2023-11-21T08:47:23;22.07;;;14.00;;
10191;SDS011;17580;50.850;4.504;2023-11-21T08:49:51;19.50;;;13.43;;
10191;SDS011;17580;50.850;4.504;2023-11-21T08:52:18;21.70;;;15.77;;
10191;SDS011;17580;50.850;4.504;2023-11-21T08:54:48;20.83;;;14.57;;
10191;SDS011;17580;50.850;4.504;2023-11-21T08:57:20;20.67;;;14.27;;
10191;SDS011;17580;50.850;4.504;2023-11-21T08:59:48;22.40;;;15.33;;
10191;SDS011;17580;50.850;4.504;2023-11-21T09:02:21;23.43;;;16.03;;
10191;SDS011;17580;50.850;4.504;2023-11-21T09:04:48;25.43;;;15.17;;
10191;SDS011;17580;50.850;4.504;2023-11-21T09:07:17;24.03;;;15.50;;
10191;SDS011;17580;50.850;4.504;2023-11-21T09:09:45;19.20;;;15.00;;
10191;SDS011;17580;50.850;4.504;2023-11-21T09:12:12;25.97;;;16.90;;
10191;SDS011;17580;50.850;4.504;2023-11-21T09:14:40;29.20;;;16.10;;
10191;SDS011;17580;50.850;4.504;2023-11-21T09:17:07;31.17;;;18.37;;
10191;SDS011;17580;50.850;4.504;2023-11-21T09:19:37;26.13;;;14.63;;
10191;SDS011;17580;50.850;4.504;2023-11-21T09:22:04;24.63;;;13.80;;
10191;SDS011;17580;50.850;4.504;2023-11-21T09:24:31;20.03;;;13.33;;
10191;SDS011;17580;50.850;4.504;2023-11-21T09:26:59;28.40;;;15.17;;
10191;SDS011;17580;50.850;4.504;2023-11-21T09:29:26;24.43;;;15.20;;
10191;SDS011;17580;50.850;4.504;2023-11-21T09:31:53;18.93;;;13.03;;
10191;SDS011;17580;50.850;4.504;2023-11-21T09:34:24;25.60;;;14.30;;
10191;SDS011;17580;50.850;4.504;2023-11-21T09:36:53;22.83;;;13.83;;
10191;SDS011;17580;50.850;4.504;2023-11-21T09:39:20;27.17;;;14.77;;
10191;SDS011;17580;50.850;4.504;2023-11-21T09:41:49;29.17;;;14.03;;
10191;SDS011;17580;50.850;4.504;2023-11-21T09:44:18;18.63;;;13.67;;
10191;SDS011;17580;50.850;4.504;2023-11-21T09:46:47;22.03;;;12.57;;
10191;SDS011;17580;50.850;4.504;2023-11-21T09:49:15;24.43;;;13.73;;
10191;SDS011;17580;50.850;4.504;2023-11-21T09:51:45;28.00;;;15.87;;
10191;SDS011;17580;50.850;4.504;2023-11-21T09:54:16;19.73;;;12.10;;
10191;SDS011;17580;50.850;4.504;2023-11-21T09:56:44;28.67;;;14.50;;
10191;SDS011;17580;50.850;4.504;2023-11-21T09:59:13;28.60;;;14.93;;
10191;SDS011;17580;50.850;4.504;2023-11-21T10:01:41;22.70;;;12.70;;
10191;SDS011;17580;50.850;4.504;2023-11-21T10:04:09;28.93;;;14.77;;
10191;SDS011;17580;50.850;4.504;2023-11-21T10:06:38;25.67;;;13.57;;
10191;SDS011;17580;50.850;4.504;2023-11-21T10:09:06;26.27;;;13.73;;
10191;SDS011;17580;50.850;4.504;2023-11-21T10:11:38;23.67;;;12.60;;
10191;SDS011;17580;50.850;4.504;2023-11-21T10:14:07;21.67;;;14.03;;
10191;SDS011;17580;50.850;4.504;2023-11-21T10:16:38;25.23;;;15.17;;
10191;SDS011;17580;50.850;4.504;2023-11-21T10:19:05;20.53;;;12.33;;
10191;SDS011;17580;50.850;4.504;2023-11-21T10:21:33;28.87;;;16.77;;
10191;SDS011;17580;50.850;4.504;2023-11-21T10:24:00;21.30;;;13.27;;
10191;SDS011;17580;50.850;4.504;2023-11-21T10:26:28;20.17;;;13.77;;
10191;SDS011;17580;50.850;4.504;2023-11-21T10:28:58;17.83;;;13.70;;
10191;SDS011;17580;50.850;4.504;2023-11-21T10:31:26;15.63;;;12.30;;
10191;SDS011;17580;50.850;4.504;2023-11-21T10:33:55;17.10;;;12.53;;
10191;SDS011;17580;50.850;4.504;2023-11-21T10:36:26;17.90;;;12.37;;
10191;SDS011;17580;50.850;4.504;2023-11-21T10:38:54;17.20;;;11.80;;
10191;SDS011;17580;50.850;4.504;2023-11-21T10:41:22;15.20;;;12.00;;
10191;SDS011;17580;50.850;4.504;2023-11-21T10:43:52;13.90;;;11.90;;
10191;SDS011;17580;50.850;4.504;2023-11-21T10:46:22;15.10;;;11.83;;
10191;SDS011;17580;50.850;4.504;2023-11-21T10:48:52;12.83;;;11.43;;
10191;SDS011;17580;50.850;4.504;2023-11-21T10:51:21;15.77;;;12.27;;
10191;SDS011;17580;50.850;4.504;2023-11-21T10:53:49;19.10;;;12.70;;
10191;SDS011;17580;50.850;4.504;2023-11-21T10:56:16;15.80;;;11.63;;
10191;SDS011;17580;50.850;4.504;2023-11-21T10:58:46;13.03;;;10.90;;
10191;SDS011;17580;50.850;4.504;2023-11-21T11:01:15;18.40;;;13.70;;
10191;SDS011;17580;50.850;4.504;2023-11-21T11:03:47;13.20;;;11.67;;
10191;SDS011;17580;50.850;4.504;2023-11-21T11:06:15;16.13;;;12.70;;
10191;SDS011;17580;50.850;4.504;2023-11-21T11:08:43;14.20;;;11.10;;
10191;SDS011;17580;50.850;4.504;2023-11-21T11:11:11;16.17;;;12.60;;
10191;SDS011;17580;50.850;4.504;2023-11-21T11:13:39;15.00;;;11.80;;
10191;SDS011;17580;50.850;4.504;2023-11-21T11:16:11;18.37;;;13.30;;
10191;SDS011;17580;50.850;4.504;2023-11-21T11:18:42;15.87;;;12.27;;
10191;SDS011;17580;50.850;4.504;2023-11-21T11:21:15;15.40;;;12.40;;
10191;SDS011;17580;50.850;4.504;2023-11-21T11:23:49;24.40;;;14.33;;
10191;SDS011;17580;50.850;4.504;2023-11-21T11:26:20;19.97;;;13.40;;
10191;SDS011;17580;50.850;4.504;2023-11-21T11:28:55;23.63;;;14.70;;
10191;SDS011;17580;50.850;4.504;2023-11-21T11:31:26;20.83;;;14.27;;
10191;SDS011;17580;50.850;4.504;2023-11-21T11:33:57;22.80;;;16.43;;
10191;SDS011;17580;50.850;4.504;2023-11-21T11:36:28;18.57;;;14.27;;
10191;SDS011;17580;50.850;4.504;2023-11-21T11:38:56;19.60;;;14.83;;
10191;SDS011;17580;50.850;4.504;2023-11-21T11:41:24;23.90;;;15.37;;
10191;SDS011;17580;50.850;4.504;2023-11-21T11:43:52;21.87;;;15.03;;
10191;SDS011;17580;50.850;4.504;2023-11-21T11:46:19;17.73;;;13.37;;
10191;SDS011;17580;50.850;4.504;2023-11-21T11:48:47;26.17;;;14.57;;
10191;SDS011;17580;50.850;4.504;2023-11-21T11:51:15;18.97;;;13.27;;
10191;SDS011;17580;50.850;4.504;2023-11-21T11:53:46;21.63;;;14.53;;
10191;SDS011;17580;50.850;4.504;2023-11-21T11:56:21;16.90;;;13.40;;
10191;SDS011;17580;50.850;4.504;2023-11-21T11:58:51;17.33;;;13.53;;
10191;SDS011;17580;50.850;4.504;2023-11-21T12:01:18;20.03;;;14.57;;
10191;SDS011;17580;50.850;4.504;2023-11-21T12:06:32;13.60;;;12.17;;
10191;SDS011;17580;50.850;4.504;2023-11-21T12:09:02;16.33;;;11.57;;
10191;SDS011;17580;50.850;4.504;2023-11-21T12:11:30;15.27;;;12.17;;
10191;SDS011;17580;50.850;4.504;2023-11-21T12:13:57;14.30;;;10.30;;
10191;SDS011;17580;50.850;4.504;2023-11-21T12:16:26;14.47;;;11.03;;
10191;SDS011;17580;50.850;4.504;2023-11-21T12:18:53;11.70;;;9.20;;
10191;SDS011;17580;50.850;4.504;2023-11-21T12:21:20;8.00;;;7.20;;
10191;SDS011;17580;50.850;4.504;2023-11-21T12:23:49;10.93;;;8.20;;
10191;SDS011;17580;50.850;4.504;2023-11-21T12:26:17;11.00;;;8.53;;
10191;SDS011;17580;50.850;4.504;2023-11-21T12:28:51;11.40;;;8.90;;
10191;SDS011;17580;50.850;4.504;2023-11-21T12:31:20;12.80;;;10.30;;
10191;SDS011;17580;50.850;4.504;2023-11-21T12:33:48;13.23;;;10.37;;
10191;SDS011;17580;50.850;4.504;2023-11-21T12:36:15;10.43;;;9.43;;
10191;SDS011;17580;50.850;4.504;2023-11-21T12:38:43;12.90;;;11.50;;
10191;SDS011;17580;50.850;4.504;2023-11-21T12:41:10;14.90;;;11.77;;
10191;SDS011;17580;50.850;4.504;2023-11-21T12:43:39;13.47;;;11.13;;
10191;SDS011;17580;50.850;4.504;2023-11-21T12:46:06;14.43;;;12.83;;
10191;SDS011;17580;50.850;4.504;2023-11-21T12:48:36;13.00;;;11.57;;
10191;SDS011;17580;50.850;4.504;2023-11-21T12:51:07;12.23;;;10.93;;
10191;SDS011;17580;50.850;4.504;2023-11-21T12:53:35;9.53;;;8.60;;
10191;SDS011;17580;50.850;4.504;2023-11-21T12:56:06;10.33;;;8.37;;
10191;SDS011;17580;50.850;4.504;2023-11-21T12:58:34;8.63;;;7.70;;
10191;SDS011;17580;50.850;4.504;2023-11-21T13:01:03;7.07;;;6.37;;
10191;SDS011;17580;50.850;4.504;2023-11-21T13:03:31;6.30;;;5.70;;
10191;SDS011;17580;50.850;4.504;2023-11-21T13:05:59;5.03;;;4.53;;
10191;SDS011;17580;50.850;4.504;2023-11-21T13:08:27;5.33;;;4.83;;
10191;SDS011;17580;50.850;4.504;2023-11-21T13:10:56;5.80;;;5.30;;
10191;SDS011;17580;50.850;4.504;2023-11-21T13:13:24;5.70;;;5.20;;
10191;SDS011;17580;50.850;4.504;2023-11-21T13:15:53;4.13;;;3.73;;
10191;SDS011;17580;50.850;4.504;2023-11-21T13:18:23;3.73;;;3.47;;
10191;SDS011;17580;50.850;4.504;2023-11-21T13:20:52;5.00;;;3.77;;
10191;SDS011;17580;50.850;4.504;2023-11-21T13:23:20;5.57;;;4.07;;
10191;SDS011;17580;50.850;4.504;2023-11-21T13:25:48;3.80;;;3.50;;
10191;SDS011;17580;50.850;4.504;2023-11-21T13:28:15;3.10;;;2.90;;
10191;SDS011;17580;50.850;4.504;2023-11-21T13:30:43;4.00;;;3.70;;
10191;SDS011;17580;50.850;4.504;2023-11-21T13:33:10;4.03;;;3.73;;
10191;SDS011;17580;50.850;4.504;2023-11-21T13:35:44;3.90;;;3.60;;
10191;SDS011;17580;50.850;4.504;2023-11-21T13:38:15;5.17;;;4.67;;
10191;SDS011;17580;50.850;4.504;2023-11-21T13:40:46;4.57;;;4.27;;
10191;SDS011;17580;50.850;4.504;2023-11-21T13:43:15;4.53;;;4.23;;
10191;SDS011;17580;50.850;4.504;2023-11-21T13:45:44;3.63;;;3.33;;
10191;SDS011;17580;50.850;4.504;2023-11-21T13:48:12;3.00;;;2.80;;
10191;SDS011;17580;50.850;4.504;2023-11-21T13:50:39;3.50;;;3.20;;
10191;SDS011;17580;50.850;4.504;2023-11-21T13:53:15;4.00;;;3.43;;
10191;SDS011;17580;50.850;4.504;2023-11-21T13:55:47;3.77;;;3.50;;
10191;SDS011;17580;50.850;4.504;2023-11-21T13:58:14;3.97;;;3.30;;
10191;SDS011;17580;50.850;4.504;2023-11-21T14:00:47;5.00;;;4.60;;
10191;SDS011;17580;50.850;4.504;2023-11-21T14:03:21;5.63;;;5.17;;
10191;SDS011;17580;50.850;4.504;2023-11-21T14:05:57;4.17;;;3.77;;
10191;SDS011;17580;50.850;4.504;2023-11-21T14:08:27;3.83;;;3.60;;
10191;SDS011;17580;50.850;4.504;2023-11-21T14:10:54;3.47;;;3.27;;
10191;SDS011;17580;50.850;4.504;2023-11-21T14:13:22;3.57;;;3.13;;
10191;SDS011;17580;50.850;4.504;2023-11-21T14:15:50;3.20;;;3.00;;
10191;SDS011;17580;50.850;4.504;2023-11-21T14:18:22;4.53;;;3.00;;
10191;SDS011;17580;50.850;4.504;2023-11-21T14:20:55;3.10;;;3.00;;
10191;SDS011;17580;50.850;4.504;2023-11-21T14:23:22;3.30;;;3.00;;
10191;SDS011;17580;50.850;4.504;2023-11-21T14:25:51;2.90;;;2.77;;
10191;SDS011;17580;50.850;4.504;2023-11-21T14:28:18;2.47;;;2.37;;
10191;SDS011;17580;50.850;4.504;2023-11-21T14:30:46;2.73;;;2.53;;
10191;SDS011;17580;50.850;4.504;2023-11-21T14:33:13;2.30;;;2.20;;
10191;SDS011;17580;50.850;4.504;2023-11-21T14:35:42;3.30;;;3.00;;